Hovedside
METAR-TAF:

METAR-TAF

Lufthavner :

Stord lufthavn. Sørstokken

Stord, Norge

breddegrad: 59-48N, lengdegrad: 005-21E, høyde over havet: 49 m

Gjeldene værobservasjon

Denne rapporten ble laget for 25 minutter siden, klokken 18:20 UTC
Vind 5 kt fra Sørøst
Temperatur 2°C
Luftfuktighet 93%
Trykk 1035 hPa
Sikt: 0500 m
tåke

METAR: ENSO 191820Z 14005KT 0500 FG VV001 02/01 Q1035

Tid: 19:45 (18:45 UTC)

Varsel

Denne rapporten ble laget for 4 timer og 45 minutter siden, klokken 14:00 UTC
Varsel gyldig fra 19. klokken 15 UTC til 19. klokken 19 UTC
Vind 3 kt fra skiftende retning
Sikt: 0100 m
i en høyde av 100 ft
tåke
Sannsynlighet 40%
fra 19. klokken 15 UTC til 19. klokken 19 UTC
Sikt 10 km eller mer
Få skyer i en høyde av 100 ft

TAF: ENSO 191400Z 1915/1919 VRB03KT 0100 FG VV001 PROB40 1915/1919 9999 NSW FEW001

Værobservasjoner og værvarsel for over 4000 flyplasser (METAR- og TAF-rapporter).

Tilgjengelige stasjoner er representert av de røde og gule prikkene på kartet.

Hold musepekeren over prikken for å se navnet på stasjonen.

Klikk så for å se værobservasjoner og -varsler.

For å forandre kartet kan du klikke på den grønne knappen med svart kryss for å zoome inn, på den grønne knappen med strek for å zoome ut, eller på de grønne pilene for å se tilstøtende kart.


METAR-TAF: